createdAt,value
2019-02-17T00:01:35.856Z,21.43
2019-02-17T00:04:07.706Z,22.57
2019-02-17T00:06:38.778Z,21.40
2019-02-17T00:09:12.644Z,22.80
2019-02-17T00:11:44.164Z,22.80
2019-02-17T00:14:16.732Z,20.77
2019-02-17T00:16:47.963Z,21.77
2019-02-17T00:19:19.628Z,22.10
2019-02-17T00:21:50.920Z,22.17
2019-02-17T00:24:22.373Z,22.27
2019-02-17T00:26:54.274Z,24.10
2019-02-17T00:29:25.768Z,22.07
2019-02-17T00:31:58.461Z,21.00
2019-02-17T00:34:30.066Z,22.27
2019-02-17T00:37:01.540Z,22.60
2019-02-17T00:39:33.332Z,21.80
2019-02-17T00:42:04.631Z,21.73
2019-02-17T00:44:37.400Z,19.73
2019-02-17T00:47:08.844Z,19.10
2019-02-17T00:49:39.959Z,19.97
2019-02-17T00:52:11.308Z,20.47
2019-02-17T00:54:43.120Z,22.53
2019-02-17T00:57:14.481Z,23.17
2019-02-17T00:59:45.991Z,23.87
2019-02-17T01:02:18.494Z,25.37
2019-02-17T01:04:49.927Z,25.53
2019-02-17T01:07:21.788Z,23.40
2019-02-17T01:09:53.778Z,23.27
2019-02-17T01:12:25.208Z,22.40
2019-02-17T01:14:56.686Z,21.40
2019-02-17T01:17:28.520Z,20.23
2019-02-17T01:19:59.870Z,21.53
2019-02-17T01:22:32.366Z,20.83
2019-02-17T01:25:04.032Z,21.37
2019-02-17T01:27:35.905Z,22.47
2019-02-17T01:30:08.773Z,20.57
2019-02-17T01:32:40.524Z,22.37
2019-02-17T01:35:12.140Z,20.43
2019-02-17T01:37:43.649Z,20.70
2019-02-17T01:40:15.404Z,20.90
2019-02-17T01:42:47.204Z,20.67
2019-02-17T01:45:18.736Z,21.50
2019-02-17T01:47:50.244Z,23.93
2019-02-17T01:50:21.712Z,22.17
2019-02-17T01:52:53.208Z,24.03
2019-02-17T01:55:24.588Z,20.53
2019-02-17T01:57:56.372Z,21.07
2019-02-17T02:00:28.048Z,21.60
2019-02-17T02:02:59.593Z,20.70
2019-02-17T02:05:32.900Z,18.77
2019-02-17T02:08:04.643Z,19.20
2019-02-17T02:10:35.823Z,19.80
2019-02-17T02:13:07.649Z,18.20
2019-02-17T02:15:39.084Z,19.20
2019-02-17T02:18:11.056Z,19.20
2019-02-17T02:20:42.542Z,19.07
2019-02-17T02:23:14.113Z,18.73
2019-02-17T02:25:45.603Z,18.50
2019-02-17T02:28:16.828Z,18.67
2019-02-17T02:30:48.321Z,18.93
2019-02-17T02:33:20.178Z,18.37
2019-02-17T02:35:51.525Z,19.27
2019-02-17T02:38:23.402Z,19.10
2019-02-17T02:40:55.056Z,17.83
2019-02-17T02:43:28.304Z,18.70
2019-02-17T02:45:59.544Z,18.17
2019-02-17T02:48:30.818Z,17.97
2019-02-17T02:51:02.253Z,17.97
2019-02-17T02:53:33.618Z,19.33
2019-02-17T02:56:04.973Z,18.10
2019-02-17T02:58:36.027Z,17.97
2019-02-17T03:01:08.304Z,17.57
2019-02-17T03:03:39.592Z,17.80
2019-02-17T03:06:30.407Z,17.67
2019-02-17T03:09:01.680Z,18.17
2019-02-17T03:11:34.200Z,17.63
2019-02-17T03:14:05.862Z,17.60
2019-02-17T03:16:37.160Z,19.67
2019-02-17T03:19:08.608Z,17.90
2019-02-17T03:21:40.418Z,17.63
2019-02-17T03:24:12.325Z,18.87
2019-02-17T03:26:44.692Z,17.53
2019-02-17T03:29:16.267Z,18.60
2019-02-17T03:31:47.915Z,17.67
2019-02-17T03:34:19.643Z,16.57
2019-02-17T03:36:51.241Z,16.80
2019-02-17T03:39:22.710Z,15.87
2019-02-17T03:41:55.026Z,16.23
2019-02-17T03:44:27.039Z,16.97
2019-02-17T03:46:58.612Z,17.87
2019-02-17T03:49:30.580Z,16.20
2019-02-17T03:52:02.036Z,15.70
2019-02-17T03:54:33.686Z,15.60
2019-02-17T03:57:05.355Z,15.70
2019-02-17T03:59:39.222Z,16.30
2019-02-17T04:02:10.915Z,16.57
2019-02-17T04:04:42.802Z,16.77
2019-02-17T04:07:19.788Z,17.93
2019-02-17T04:09:53.807Z,15.60
2019-02-17T04:12:28.345Z,17.27
2019-02-17T04:15:01.608Z,17.70
2019-02-17T04:17:39.542Z,19.17
2019-02-17T04:20:11.486Z,15.50
2019-02-17T04:22:45.478Z,16.63
2019-02-17T04:25:18.594Z,17.10
2019-02-17T04:27:54.820Z,18.07
2019-02-17T04:30:29.578Z,19.33
2019-02-17T04:33:21.886Z,20.27
2019-02-17T04:36:13.699Z,18.73
2019-02-17T04:53:50.943Z,15.83
2019-02-17T05:32:40.656Z,17.80
2019-02-17T05:35:12.100Z,17.63
2019-02-17T05:37:43.701Z,18.03
2019-02-17T05:40:16.688Z,18.00
2019-02-17T05:42:47.995Z,16.40
2019-02-17T05:45:19.491Z,17.50
2019-02-17T05:47:51.087Z,17.27
2019-02-17T05:50:22.742Z,18.90
2019-02-17T05:52:54.109Z,18.20
2019-02-17T05:55:25.352Z,16.13
2019-02-17T05:57:56.915Z,17.07
2019-02-17T06:00:33.058Z,16.87
2019-02-17T06:03:05.936Z,16.77
2019-02-17T06:05:38.040Z,17.93
2019-02-17T06:08:11.445Z,16.20
2019-02-17T06:10:45.580Z,17.70
2019-02-17T06:13:22.189Z,16.37
2019-02-17T06:15:54.089Z,16.27
2019-02-17T06:18:25.463Z,15.30
2019-02-17T06:20:56.986Z,15.80
2019-02-17T06:23:31.826Z,17.00
2019-02-17T06:26:05.355Z,15.50
2019-02-17T06:28:36.575Z,14.97
2019-02-17T06:31:14.553Z,16.70
2019-02-17T06:33:42.856Z,16.60
2019-02-17T06:36:14.367Z,16.40
2019-02-17T06:38:46.154Z,15.47
2019-02-17T06:41:17.401Z,16.30
2019-02-17T06:43:49.058Z,15.70
2019-02-17T06:46:24.808Z,16.57
2019-02-17T06:48:56.219Z,16.57
2019-02-17T06:51:27.735Z,16.53
2019-02-17T06:53:59.417Z,17.27
2019-02-17T06:56:50.479Z,17.20
2019-02-17T06:59:21.931Z,17.77
2019-02-17T07:01:53.392Z,16.77
2019-02-17T07:04:57.092Z,16.07
2019-02-17T07:07:29.081Z,16.40
2019-02-17T07:10:00.580Z,16.73
2019-02-17T07:12:32.076Z,15.50
2019-02-17T07:15:03.625Z,17.23
2019-02-17T07:17:34.689Z,15.60
2019-02-17T07:20:06.629Z,15.43
2019-02-17T07:22:39.500Z,15.73
2019-02-17T07:25:10.597Z,15.57
2019-02-17T07:27:41.897Z,13.77
2019-02-17T07:30:13.456Z,14.50
2019-02-17T07:32:46.164Z,16.27
2019-02-17T07:35:18.516Z,15.50
2019-02-17T07:37:50.029Z,16.23
2019-02-17T07:40:21.353Z,15.17
2019-02-17T07:42:53.932Z,16.67
2019-02-17T07:45:25.530Z,15.80
2019-02-17T07:47:56.752Z,17.17
2019-02-17T07:50:28.874Z,16.73
2019-02-17T07:53:00.673Z,16.43
2019-02-17T07:55:33.425Z,16.70
2019-02-17T07:58:05.471Z,16.63
2019-02-17T08:00:36.919Z,16.23
2019-02-17T08:03:08.694Z,16.27
2019-02-17T08:05:41.311Z,17.07
2019-02-17T08:08:12.532Z,19.07
2019-02-17T08:10:44.160Z,18.20
2019-02-17T08:13:16.122Z,18.03
2019-02-17T08:15:47.645Z,19.07
2019-02-17T08:18:20.172Z,18.57
2019-02-17T08:20:51.401Z,18.30
2019-02-17T08:23:22.971Z,19.77
2019-02-17T08:25:54.465Z,18.13
2019-02-17T08:28:25.514Z,18.83
2019-02-17T08:30:56.828Z,18.13
2019-02-17T08:33:27.915Z,17.77
2019-02-17T08:35:59.375Z,19.57
2019-02-17T08:38:31.076Z,18.73
2019-02-17T08:41:02.964Z,19.17
2019-02-17T08:43:34.988Z,18.83
2019-02-17T08:46:06.398Z,20.37
2019-02-17T08:48:37.708Z,21.17
2019-02-17T08:51:09.352Z,19.47
2019-02-17T08:53:40.751Z,19.77
2019-02-17T08:56:15.623Z,18.80
2019-02-17T08:58:48.738Z,19.23
2019-02-17T09:01:51.620Z,18.93
2019-02-17T09:08:18.538Z,19.93
2019-02-17T09:15:30.535Z,20.03
2019-02-17T09:18:35.615Z,20.47
2019-02-17T09:35:40.358Z,22.33
2019-02-17T09:38:34.836Z,21.27
2019-02-17T09:41:20.298Z,21.30
2019-02-17T09:43:56.547Z,21.77
2019-02-17T09:46:44.656Z,20.53
2019-02-17T09:49:24.524Z,20.10
2019-02-17T09:51:58.789Z,21.43
2019-02-17T09:54:48.278Z,22.53
2019-02-17T09:57:41.158Z,21.77
2019-02-17T10:00:17.838Z,21.83
2019-02-17T10:03:12.858Z,20.77
2019-02-17T10:05:51.238Z,20.63
2019-02-17T10:08:23.928Z,19.53
2019-02-17T10:10:57.392Z,19.43
2019-02-17T10:14:01.181Z,19.03
2019-02-17T10:16:44.791Z,18.90
2019-02-17T10:19:44.296Z,17.43
2019-02-17T10:22:18.959Z,17.60
2019-02-17T10:25:53.425Z,17.57
2019-02-17T10:28:14.257Z,17.80
2019-02-17T10:30:47.072Z,16.33
2019-02-17T10:33:19.553Z,15.93
2019-02-17T10:35:51.711Z,13.77
2019-02-17T10:38:23.580Z,12.77
2019-02-17T10:40:55.365Z,13.33
2019-02-17T10:43:27.222Z,12.80
2019-02-17T10:45:58.933Z,12.93
2019-02-17T10:48:30.151Z,12.47
2019-02-17T10:51:01.957Z,15.60
2019-02-17T10:53:33.769Z,12.17
2019-02-17T10:56:05.452Z,13.93
2019-02-17T10:58:37.116Z,13.07
2019-02-17T11:01:08.669Z,11.27
2019-02-17T11:03:40.070Z,10.10
2019-02-17T11:06:11.597Z,10.33
2019-02-17T11:08:42.824Z,10.50
2019-02-17T11:11:18.108Z,10.37
2019-02-17T11:13:49.701Z,9.50
2019-02-17T11:16:22.152Z,10.07
2019-02-17T11:18:53.729Z,9.63
2019-02-17T11:21:25.193Z,9.83
2019-02-17T11:23:56.711Z,9.37
2019-02-17T11:26:30.322Z,9.20
2019-02-17T11:29:01.716Z,8.40
2019-02-17T11:31:32.932Z,9.23
2019-02-17T11:34:04.260Z,9.27
2019-02-17T11:36:36.160Z,7.97
2019-02-17T11:39:12.980Z,9.03
2019-02-17T11:41:44.458Z,10.77
2019-02-17T11:44:16.088Z,8.93
2019-02-17T11:46:47.535Z,8.60
2019-02-17T11:49:19.068Z,9.47
2019-02-17T11:51:51.127Z,8.23
2019-02-17T11:54:23.016Z,8.53
2019-02-17T11:57:04.420Z,9.03
2019-02-17T11:59:35.728Z,9.27
2019-02-17T12:02:07.500Z,8.67
2019-02-17T12:04:38.916Z,7.73
2019-02-17T12:07:11.613Z,9.10
2019-02-17T12:09:42.942Z,9.63
2019-02-17T12:12:14.207Z,9.20
2019-02-17T12:14:46.032Z,7.87
2019-02-17T12:17:17.472Z,7.13
2019-02-17T12:19:49.152Z,7.17
2019-02-17T12:22:28.790Z,7.73
2019-02-17T12:25:12.054Z,7.77
2019-02-17T12:27:56.229Z,7.07
2019-02-17T12:30:30.412Z,7.67
2019-02-17T12:33:03.349Z,6.90
2019-02-17T12:35:37.016Z,7.87
2019-02-17T12:38:08.584Z,7.60
2019-02-17T12:40:40.258Z,7.60
2019-02-17T12:43:11.877Z,8.60
2019-02-17T12:45:43.514Z,8.70
2019-02-17T12:48:14.718Z,9.03
2019-02-17T12:50:47.085Z,9.57
2019-02-17T12:53:19.314Z,9.53
2019-02-17T12:56:06.842Z,9.20
2019-02-17T12:58:42.813Z,9.17
2019-02-17T13:01:14.237Z,8.83
2019-02-17T13:03:46.025Z,10.77
2019-02-17T13:06:17.674Z,14.53
2019-02-17T13:09:00.602Z,12.63
2019-02-17T13:11:32.986Z,9.63
2019-02-17T13:14:04.466Z,10.60
2019-02-17T13:16:36.310Z,10.73
2019-02-17T13:19:07.663Z,10.27
2019-02-17T13:21:40.029Z,9.17
2019-02-17T13:24:12.201Z,10.50
2019-02-17T13:26:44.272Z,10.43
2019-02-17T13:29:16.857Z,9.80
2019-02-17T13:31:48.621Z,10.07
2019-02-17T13:34:20.906Z,9.83
2019-02-17T13:36:53.244Z,10.17
2019-02-17T13:39:24.836Z,9.60
2019-02-17T13:41:57.569Z,9.33
2019-02-17T13:44:30.803Z,9.77
2019-02-17T13:47:02.645Z,9.97
2019-02-17T13:49:34.602Z,8.90
2019-02-17T13:52:06.622Z,9.87
2019-02-17T13:54:39.836Z,10.37
2019-02-17T13:57:11.966Z,10.53
2019-02-17T13:59:43.881Z,11.00
2019-02-17T14:02:15.393Z,9.70
2019-02-17T14:04:52.158Z,9.47
2019-02-17T14:07:24.007Z,10.83
2019-02-17T14:09:55.900Z,10.77
2019-02-17T14:12:27.658Z,11.40
2019-02-17T14:14:59.768Z,11.67
2019-02-17T14:17:31.738Z,11.13
2019-02-17T14:20:03.539Z,11.17
2019-02-17T14:22:35.073Z,11.47
2019-02-17T14:25:07.033Z,11.27
2019-02-17T14:27:40.748Z,11.00
2019-02-17T14:30:12.757Z,11.70
2019-02-17T14:32:44.998Z,12.77
2019-02-17T14:35:16.853Z,11.90
2019-02-17T14:37:48.716Z,11.30
2019-02-17T14:40:20.777Z,11.37
2019-02-17T14:42:55.346Z,12.07
2019-02-17T14:45:27.473Z,12.43
2019-02-17T14:47:59.482Z,11.43
2019-02-17T14:50:31.330Z,11.93
2019-02-17T14:53:03.575Z,12.37
2019-02-17T14:55:35.877Z,11.23
2019-02-17T14:58:08.199Z,11.97
2019-02-17T15:00:40.343Z,11.73
2019-02-17T15:03:11.900Z,12.60
2019-02-17T15:05:44.282Z,12.17
2019-02-17T15:08:18.093Z,11.17
2019-02-17T15:10:51.186Z,11.83
2019-02-17T15:13:33.478Z,11.37
2019-02-17T15:16:10.615Z,12.23
2019-02-17T15:18:47.347Z,11.40
2019-02-17T15:21:18.293Z,11.17
2019-02-17T15:24:03.447Z,12.37
2019-02-17T15:29:59.398Z,11.80
2019-02-17T15:32:30.815Z,12.53
2019-02-17T15:35:02.648Z,11.97
2019-02-17T15:37:33.979Z,12.60
2019-02-17T15:40:05.656Z,13.83
2019-02-17T15:42:37.052Z,12.73
2019-02-17T15:45:09.406Z,12.47
2019-02-17T15:47:40.770Z,11.77
2019-02-17T15:50:12.526Z,11.77
2019-02-17T15:52:43.980Z,12.23
2019-02-17T15:55:15.245Z,13.23
2019-02-17T15:57:49.888Z,13.00
2019-02-17T16:00:21.438Z,12.73
2019-02-17T16:02:54.457Z,13.60
2019-02-17T16:05:26.817Z,12.17
2019-02-17T16:07:58.859Z,13.40
2019-02-17T16:10:30.378Z,12.73
2019-02-17T16:13:02.935Z,12.13
2019-02-17T16:15:34.516Z,12.67
2019-02-17T16:18:06.174Z,12.87
2019-02-17T16:20:38.163Z,12.27
2019-02-17T16:23:13.154Z,12.70
2019-02-17T16:25:45.177Z,13.53
2019-02-17T16:28:16.700Z,13.27
2019-02-17T16:30:48.536Z,13.20
2019-02-17T16:33:20.131Z,13.73
2019-02-17T16:35:52.202Z,14.60
2019-02-17T16:38:26.540Z,12.97
2019-02-17T16:40:58.590Z,13.73
2019-02-17T16:43:30.550Z,14.53
2019-02-17T16:46:02.356Z,14.00
2019-02-17T16:48:37.245Z,13.27
2019-02-17T16:51:08.746Z,21.40
2019-02-17T16:53:45.050Z,24.60
2019-02-17T16:56:20.213Z,23.67
2019-02-17T16:58:53.294Z,21.97
2019-02-17T17:01:25.037Z,18.97
2019-02-17T17:03:56.897Z,16.73
2019-02-17T17:06:28.771Z,14.43
2019-02-17T17:09:00.682Z,14.60
2019-02-17T17:11:34.028Z,12.63
2019-02-17T17:14:15.181Z,14.67
2019-02-17T17:17:08.806Z,13.70
2019-02-17T17:19:40.670Z,12.87
2019-02-17T17:22:12.568Z,14.78
2019-02-17T17:24:44.134Z,13.97
2019-02-17T17:27:16.408Z,12.67
2019-02-17T17:29:47.452Z,12.07
2019-02-17T17:32:20.115Z,11.20
2019-02-17T17:34:58.654Z,11.50
2019-02-17T17:37:24.848Z,11.73
2019-02-17T17:39:56.484Z,13.37
2019-02-17T17:42:28.201Z,12.47
2019-02-17T17:44:59.647Z,14.50
2019-02-17T17:47:31.346Z,15.10
2019-02-17T17:50:02.984Z,15.50
2019-02-17T17:52:34.724Z,16.37
2019-02-17T17:55:06.578Z,13.70
2019-02-17T17:57:40.469Z,15.77
2019-02-17T18:00:14.716Z,15.20
2019-02-17T18:02:46.992Z,19.37
2019-02-17T18:05:18.938Z,16.07
2019-02-17T18:07:51.368Z,13.83
2019-02-17T18:10:23.073Z,12.77
2019-02-17T18:12:54.540Z,14.33
2019-02-17T18:15:29.073Z,14.23
2019-02-17T18:18:00.476Z,14.23
2019-02-17T18:20:32.280Z,14.50
2019-02-17T18:23:04.752Z,14.43
2019-02-17T18:25:36.577Z,15.90
2019-02-17T18:28:08.395Z,14.90
2019-02-17T18:30:40.552Z,13.63
2019-02-17T18:33:12.231Z,12.53
2019-02-17T18:35:43.604Z,14.23
2019-02-17T18:38:15.402Z,13.97
2019-02-17T18:40:47.936Z,14.87
2019-02-17T18:43:19.676Z,15.23
2019-02-17T18:45:52.332Z,15.37
2019-02-17T18:48:23.848Z,15.90
2019-02-17T18:50:59.238Z,20.70
2019-02-17T18:53:28.564Z,14.67
2019-02-17T18:55:59.706Z,18.07
2019-02-17T18:58:31.273Z,20.37
2019-02-17T19:01:02.676Z,25.40
2019-02-17T19:03:34.577Z,18.17
2019-02-17T19:06:05.678Z,20.67
2019-02-17T19:08:37.364Z,25.53
2019-02-17T19:11:08.780Z,12.90
2019-02-17T19:13:40.286Z,11.30
2019-02-17T19:16:11.632Z,11.07
2019-02-17T19:18:43.054Z,12.63
2019-02-17T19:21:16.864Z,10.70
2019-02-17T19:23:48.304Z,11.27
2019-02-17T19:26:19.432Z,10.03
2019-02-17T19:28:50.805Z,10.00
2019-02-17T19:31:24.276Z,11.37
2019-02-17T19:33:56.084Z,10.33
2019-02-17T19:36:27.992Z,10.83
2019-02-17T19:39:01.112Z,9.97
2019-02-17T19:41:34.099Z,9.50
2019-02-17T19:44:05.296Z,9.80
2019-02-17T19:46:36.453Z,9.43
2019-02-17T19:49:08.239Z,9.80
2019-02-17T19:51:39.765Z,9.57
2019-02-17T19:54:11.726Z,10.30
2019-02-17T19:56:44.483Z,9.87
2019-02-17T19:59:15.879Z,9.60
2019-02-17T20:01:47.653Z,10.87
2019-02-17T20:04:41.477Z,10.13
2019-02-17T20:07:14.496Z,10.40
2019-02-17T20:09:46.028Z,9.87
2019-02-17T20:12:17.664Z,9.70
2019-02-17T20:14:49.059Z,10.53
2019-02-17T20:17:22.747Z,9.90
2019-02-17T20:19:54.154Z,10.37
2019-02-17T20:22:25.640Z,10.27
2019-02-17T20:24:56.900Z,11.50
2019-02-17T20:27:28.503Z,11.13
2019-02-17T20:30:00.311Z,10.90
2019-02-17T20:32:32.034Z,10.77
2019-02-17T20:35:04.549Z,10.17
2019-02-17T20:37:37.786Z,11.10
2019-02-17T20:40:09.459Z,10.50
2019-02-17T20:42:40.615Z,9.10
2019-02-17T20:45:11.771Z,10.70
2019-02-17T20:47:43.271Z,9.60
2019-02-17T20:50:15.591Z,10.20
2019-02-17T20:52:47.197Z,9.23
2019-02-17T20:55:19.064Z,9.47
2019-02-17T20:57:50.349Z,9.67
2019-02-17T21:00:23.620Z,8.30
2019-02-17T21:02:54.943Z,9.27
2019-02-17T21:05:26.364Z,9.60
2019-02-17T21:07:57.495Z,9.80
2019-02-17T21:10:29.237Z,9.63
2019-02-17T21:13:00.769Z,9.10
2019-02-17T21:15:32.028Z,9.57
2019-02-17T21:18:03.258Z,9.23
2019-02-17T21:20:35.714Z,9.40
2019-02-17T21:23:07.188Z,10.03
2019-02-17T21:25:38.659Z,9.10
2019-02-17T21:28:10.520Z,9.00
2019-02-17T21:30:42.367Z,9.27
2019-02-17T21:33:14.285Z,9.80
2019-02-17T21:35:45.705Z,9.30
2019-02-17T21:38:16.759Z,10.93
2019-02-17T21:40:48.491Z,11.80
2019-02-17T21:43:19.659Z,9.93
2019-02-17T21:45:51.039Z,10.87
2019-02-17T21:48:23.628Z,10.00
2019-02-17T21:50:55.079Z,9.13
2019-02-17T21:53:26.884Z,9.57
2019-02-17T21:55:58.706Z,9.43
2019-02-17T21:58:30.576Z,10.53
2019-02-17T22:01:03.313Z,10.47
2019-02-17T22:03:35.553Z,9.83
2019-02-17T22:06:06.720Z,11.20
2019-02-17T22:08:38.762Z,10.47
2019-02-17T22:11:10.275Z,11.07
2019-02-17T22:13:44.658Z,10.67
2019-02-17T22:16:15.901Z,10.30
2019-02-17T22:18:47.348Z,9.67
2019-02-17T22:21:18.779Z,9.77
2019-02-17T22:23:50.556Z,10.87
2019-02-17T22:26:25.172Z,10.17
2019-02-17T22:28:59.595Z,10.10
2019-02-17T22:31:31.329Z,10.77
2019-02-17T22:34:03.106Z,11.23
2019-02-17T22:36:43.565Z,10.40
2019-02-17T22:39:08.939Z,11.00
2019-02-17T22:41:40.858Z,10.60
2019-02-17T22:44:13.354Z,10.33
2019-02-17T22:46:45.930Z,10.13
2019-02-17T22:49:17.635Z,10.60
2019-02-17T22:51:48.997Z,10.67
2019-02-17T22:54:21.765Z,11.17
2019-02-17T22:56:54.566Z,11.00
2019-02-17T22:59:25.946Z,10.77
2019-02-17T23:01:57.645Z,10.53
2019-02-17T23:04:29.489Z,9.47
2019-02-17T23:07:00.899Z,9.33
2019-02-17T23:09:32.314Z,9.70
2019-02-17T23:12:04.103Z,9.63
2019-02-17T23:14:35.097Z,9.60
2019-02-17T23:17:06.450Z,10.07
2019-02-17T23:19:37.684Z,9.60
2019-02-17T23:22:09.011Z,9.90
2019-02-17T23:24:40.150Z,9.50
2019-02-17T23:27:11.464Z,9.97
2019-02-17T23:29:42.498Z,9.23
2019-02-17T23:32:13.932Z,9.80
2019-02-17T23:34:45.798Z,9.50
2019-02-17T23:37:17.152Z,8.90
2019-02-17T23:39:48.491Z,9.70
2019-02-17T23:42:19.811Z,10.10
2019-02-17T23:44:51.147Z,10.03
2019-02-17T23:47:22.231Z,9.13
2019-02-17T23:49:54.451Z,11.07
2019-02-17T23:52:25.988Z,9.03
2019-02-17T23:54:57.006Z,9.67
2019-02-17T23:57:28.385Z,10.07
2019-02-17T23:59:59.624Z,9.70
